Time;durP1;ratioP1;P1;durP2;ratioP2;P2;SDS_P1;SDS_P2;PMS_P1;PMS_P2;Temp;Humidity;BMP_temperature;BMP_pressure;BME280_temperature;BME280_humidity;BME280_pressure;Samples;Min_cycle;Max_cycle;Signal;HPM_P1;HPM_P2
2023/09/29 00:01:36;;;;;;;;;;;;;;;13.44;100.00;99921.13;4954750;29;883;-59
2023/09/29 00:04:04;;;;;;;;;;;;;;;13.40;100.00;99923.97;4954601;29;848;-59
2023/09/29 00:06:32;;;;;;;;;;;;;;;13.44;100.00;99924.72;4954591;29;821;-59
2023/09/29 00:08:59;;;;;;;;;;;;;;;13.55;100.00;99927.34;4954513;29;801;-59
2023/09/29 00:11:26;;;;;;;;;;;;;;;13.59;100.00;99925.28;4954605;29;840;-59
2023/09/29 00:13:54;;;;;;;;;;;;;;;13.56;100.00;99934.44;4954759;29;963;-59
2023/09/29 00:16:20;;;;;;;;;;;;;;;13.51;100.00;99921.03;4954250;29;1299;-59
2023/09/29 00:18:47;;;;;;;;;;;;;;;13.46;100.00;99913.16;4954274;29;1954;-59
2023/09/29 00:21:14;;;;;;;;;;;;;;;13.35;100.00;99921.66;4954414;29;896;-59
2023/09/29 00:23:40;;;;;;;;;;;;;;;13.33;100.00;99923.28;4954249;29;860;-59
2023/09/29 00:26:07;;;;;;;;;;;;;;;13.26;100.00;99927.69;4954167;29;813;-59
2023/09/29 00:28:34;;;;;;;;;;;;;;;13.27;100.00;99915.41;4954213;29;845;-59
2023/09/29 00:31:02;;;;;;;;;;;;;;;13.28;100.00;99921.75;4954170;29;842;-59
2023/09/29 00:33:30;;;;;;;;;;;;;;;13.36;100.00;99916.91;4954141;29;879;-59
2023/09/29 00:35:58;;;;;;;;;;;;;;;13.46;100.00;99921.50;4954134;29;820;-59
2023/09/29 00:38:25;;;;;;;;;;;;;;;13.45;100.00;99919.94;4953859;29;1891;-59
2023/09/29 00:40:51;;;;;;;;;;;;;;;13.37;100.00;99913.69;4954024;29;814;-59
2023/09/29 00:43:18;;;;;;;;;;;;;;;13.28;100.00;99910.63;4954042;29;860;-59
2023/09/29 00:45:47;;;;;;;;;;;;;;;13.15;100.00;99915.19;4953903;29;905;-59
2023/09/29 00:48:15;;;;;;;;;;;;;;;13.04;100.00;99907.78;4953604;28;852;-59
2023/09/29 00:50:42;;;;;;;;;;;;;;;13.05;100.00;99903.03;4953814;29;945;-59
2023/09/29 00:53:14;;;;;;;;;;;;;;;13.15;100.00;99907.66;4953960;29;802;-59
2023/09/29 00:55:42;;;;;;;;;;;;;;;13.31;100.00;99897.94;4953815;29;886;-59
2023/09/29 00:58:09;;;;;;;;;;;;;;;13.30;100.00;99897.16;4953748;29;1950;-59
2023/09/29 01:00:37;;;;;;;;;;;;;;;13.17;100.00;99896.91;4953785;29;841;-59
2023/09/29 01:03:09;;;;;;;;;;;;;;;13.01;100.00;99889.19;4953845;29;829;-59
2023/09/29 01:05:53;;;;;;;;;;;;;;;12.87;100.00;99895.72;4953820;29;817;-59
2023/09/29 01:08:21;;;;;;;;;;;;;;;12.90;100.00;99896.88;4953710;29;825;-59
2023/09/29 01:10:49;;;;;;;;;;;;;;;12.85;100.00;99886.25;4953805;29;819;-59
2023/09/29 01:13:16;;;;;;;;;;;;;;;12.76;100.00;99883.97;4953888;29;985;-60
2023/09/29 01:15:43;;;;;;;;;;;;;;;12.68;100.00;99890.81;4953535;29;1385;-59
2023/09/29 01:18:10;;;;;;;;;;;;;;;12.55;100.00;99892.56;4953915;29;1919;-59
2023/09/29 01:20:37;;;;;;;;;;;;;;;12.50;100.00;99888.22;4953673;29;825;-59
2023/09/29 01:23:04;;;;;;;;;;;;;;;12.72;100.00;99882.47;4953534;29;849;-59
2023/09/29 01:25:31;;;;;;;;;;;;;;;12.86;100.00;99890.56;4953483;29;849;-59
2023/09/29 01:27:59;;;;;;;;;;;;;;;12.85;100.00;99891.78;4953770;29;901;-59
2023/09/29 01:30:27;;;;;;;;;;;;;;;12.73;100.00;99892.34;4953470;29;920;-60
2023/09/29 01:32:56;;;;;;;;;;;;;;;12.59;100.00;99885.78;4953517;29;845;-59
2023/09/29 01:35:23;;;;;;;;;;;;;;;12.55;100.00;99884.25;4953418;29;908;-59
2023/09/29 01:37:50;;;;;;;;;;;;;;;12.50;100.00;99884.69;4953468;29;1894;-59
2023/09/29 01:40:20;;;;;;;;;;;;;;;12.41;100.00;99883.19;4953423;29;891;-59
2023/09/29 01:42:49;;;;;;;;;;;;;;;12.41;100.00;99877.63;4953454;29;868;-59
2023/09/29 01:45:16;;;;;;;;;;;;;;;12.37;100.00;99878.88;4953300;29;862;-60
2023/09/29 01:47:44;;;;;;;;;;;;;;;12.31;100.00;99869.44;4953383;29;821;-59
2023/09/29 01:50:11;;;;;;;;;;;;;;;12.25;100.00;99872.69;4953409;29;838;-59
2023/09/29 01:52:38;;;;;;;;;;;;;;;12.19;100.00;99882.63;4953350;29;856;-59
2023/09/29 01:55:16;;;;;;;;;;;;;;;12.14;100.00;99879.50;4953258;29;884;-59
2023/09/29 01:57:42;;;;;;;;;;;;;;;12.14;100.00;99873.97;4953212;29;1956;-60
2023/09/29 02:00:15;;;;;;;;;;;;;;;12.10;100.00;99881.53;4955092;28;817;-59
2023/09/29 02:02:44;;;;;;;;;;;;;;;12.03;100.00;99876.84;4956859;29;853;-60
2023/09/29 02:05:11;;;;;;;;;;;;;;;12.01;100.00;99879.25;4956841;29;864;-60
2023/09/29 02:07:40;;;;;;;;;;;;;;;12.04;100.00;99884.75;4956774;29;873;-59
2023/09/29 02:10:10;;;;;;;;;;;;;;;12.21;100.00;99882.22;4956985;29;829;-60
2023/09/29 02:12:46;;;;;;;;;;;;;;;12.39;100.00;99882.03;4957010;29;988;-59
2023/09/29 02:15:15;;;;;;;;;;;;;;;12.63;100.00;99872.66;4956472;29;1300;-59
2023/09/29 02:17:43;;;;;;;;;;;;;;;12.86;100.00;99880.25;4956641;29;1973;-59
2023/09/29 02:20:46;;;;;;;;;;;;;;;12.95;100.00;99868.69;4956440;29;869;-60
2023/09/29 02:23:05;;;;;;;;;;;;;;;13.10;100.00;99882.34;4953148;29;1064;-60
2023/09/29 02:25:32;;;;;;;;;;;;;;;13.20;100.00;99884.97;4939244;29;975;-60
2023/09/29 02:27:59;;;;;;;;;;;;;;;13.37;100.00;99885.16;4956707;29;808;-59
2023/09/29 02:30:27;;;;;;;;;;;;;;;13.40;100.00;99889.84;4956668;29;824;-59
2023/09/29 02:32:55;;;;;;;;;;;;;;;13.46;100.00;99890.97;4956320;29;872;-59
2023/09/29 02:35:23;;;;;;;;;;;;;;;13.38;100.00;99886.75;4956353;29;829;-59
2023/09/29 02:37:52;;;;;;;;;;;;;;;13.27;100.00;99882.09;4956336;29;1890;-59
2023/09/29 02:40:19;;;;;;;;;;;;;;;13.46;100.00;99888.19;4956377;29;912;-59
2023/09/29 02:42:46;;;;;;;;;;;;;;;13.80;100.00;99887.25;4956138;29;971;-59
2023/09/29 02:45:13;;;;;;;;;;;;;;;14.26;100.00;99891.22;4956256;29;830;-60
2023/09/29 02:47:41;;;;;;;;;;;;;;;14.42;100.00;99885.75;4956127;29;898;-59
2023/09/29 02:50:09;;;;;;;;;;;;;;;14.30;100.00;99889.94;4956055;29;896;-60
2023/09/29 02:52:39;;;;;;;;;;;;;;;14.04;100.00;99897.16;4955885;29;846;-59
2023/09/29 02:55:07;;;;;;;;;;;;;;;13.95;100.00;99894.13;4955956;29;821;-59
2023/09/29 02:57:34;;;;;;;;;;;;;;;13.89;100.00;99893.06;4956156;29;915;-59
2023/09/29 03:00:06;;;;;;;;;;;;;;;13.82;100.00;99882.06;4955833;29;1948;-59
2023/09/29 03:02:33;;;;;;;;;;;;;;;13.84;100.00;99887.97;4955813;29;829;-60
2023/09/29 03:04:58;;;;;;;;;;;;;;;13.92;100.00;99897.00;4955684;29;861;-59
2023/09/29 03:07:27;;;;;;;;;;;;;;;13.94;100.00;99898.13;4955807;29;873;-59
2023/09/29 03:09:55;;;;;;;;;;;;;;;13.76;100.00;99895.66;4955429;28;956;-59
2023/09/29 03:12:22;;;;;;;;;;;;;;;13.55;100.00;99905.13;4955594;29;1031;-60
2023/09/29 03:14:48;;;;;;;;;;;;;;;13.49;100.00;99898.47;4955384;29;1241;-59
2023/09/29 03:17:15;;;;;;;;;;;;;;;13.47;100.00;99906.44;4955531;29;841;-59
2023/09/29 03:19:42;;;;;;;;;;;;;;;13.58;100.00;99909.03;4954161;29;1962;-59
2023/09/29 03:22:13;;;;;;;;;;;;;;;13.84;100.00;99912.97;4955366;29;845;-59
2023/09/29 03:24:40;;;;;;;;;;;;;;;13.99;100.00;99905.19;4955686;29;813;-59
2023/09/29 03:27:07;;;;;;;;;;;;;;;14.12;100.00;99905.38;4955327;29;814;-59
2023/09/29 03:29:35;;;;;;;;;;;;;;;14.17;100.00;99905.69;4955337;29;869;-59
2023/09/29 03:32:03;;;;;;;;;;;;;;;14.13;100.00;99913.28;4955329;29;935;-59
2023/09/29 03:34:29;;;;;;;;;;;;;;;14.07;100.00;99912.97;4955422;29;825;-59
2023/09/29 03:36:56;;;;;;;;;;;;;;;14.08;100.00;99917.34;4955089;29;845;-59
2023/09/29 03:39:23;;;;;;;;;;;;;;;14.26;100.00;99908.69;4953775;29;1886;-59
2023/09/29 03:41:51;;;;;;;;;;;;;;;14.47;100.00;99915.84;4955116;29;831;-59
2023/09/29 03:44:17;;;;;;;;;;;;;;;14.72;100.00;99909.00;4955109;29;963;-59
2023/09/29 03:46:44;;;;;;;;;;;;;;;15.20;100.00;99917.97;4954886;29;844;-59
2023/09/29 03:49:11;;;;;;;;;;;;;;;15.53;100.00;99921.59;4954973;29;837;-59
2023/09/29 03:51:38;;;;;;;;;;;;;;;15.85;100.00;99918.09;4954805;29;849;-59
2023/09/29 03:54:07;;;;;;;;;;;;;;;16.10;100.00;99919.44;4954826;29;813;-59
2023/09/29 03:56:34;;;;;;;;;;;;;;;16.17;100.00;99926.84;4954849;29;1239;-59
2023/09/29 03:59:01;;;;;;;;;;;;;;;16.01;100.00;99930.44;4954789;29;1972;-59
2023/09/29 04:01:28;;;;;;;;;;;;;;;15.77;100.00;99932.59;4954814;29;1230;-59
2023/09/29 04:03:54;;;;;;;;;;;;;;;15.76;100.00;99933.84;4954637;29;872;-59
2023/09/29 04:06:21;;;;;;;;;;;;;;;15.77;100.00;99936.19;4954612;29;829;-60
2023/09/29 04:08:47;;;;;;;;;;;;;;;15.90;100.00;99933.50;4954587;29;840;-59
2023/09/29 04:11:14;;;;;;;;;;;;;;;15.86;100.00;99936.34;4954564;29;849;-59
2023/09/29 04:13:41;;;;;;;;;;;;;;;15.78;100.00;99928.59;4954456;29;980;-59
2023/09/29 04:16:08;;;;;;;;;;;;;;;15.63;100.00;99926.13;4954220;29;1289;-59
2023/09/29 04:18:35;;;;;;;;;;;;;;;15.38;100.00;99923.13;4954683;29;1919;-59
2023/09/29 04:21:01;;;;;;;;;;;;;;;15.14;100.00;99928.03;4954262;29;922;-59
2023/09/29 04:23:28;;;;;;;;;;;;;;;14.99;100.00;99927.56;4953758;28;817;-59
2023/09/29 04:25:55;;;;;;;;;;;;;;;14.98;100.00;99929.56;4954250;29;837;-59
2023/09/29 04:28:22;;;;;;;;;;;;;;;15.11;100.00;99932.47;4954497;29;825;-59
2023/09/29 04:30:49;;;;;;;;;;;;;;;15.21;100.00;99931.47;4954218;29;857;-59
2023/09/29 04:33:16;;;;;;;;;;;;;;;15.27;100.00;99926.94;4954162;29;834;-59
2023/09/29 04:35:43;;;;;;;;;;;;;;;15.78;100.00;99929.38;4954101;29;817;-59
2023/09/29 04:38:09;;;;;;;;;;;;;;;16.02;100.00;99937.56;4953987;29;1895;-59
2023/09/29 04:40:37;;;;;;;;;;;;;;;16.33;100.00;99932.41;4954087;29;917;-59
2023/09/29 04:43:06;;;;;;;;;;;;;;;16.62;100.00;99938.00;4954014;29;900;-59
2023/09/29 04:45:35;;;;;;;;;;;;;;;16.80;100.00;99937.53;4954033;29;802;-59
2023/09/29 04:48:03;;;;;;;;;;;;;;;17.00;100.00;99937.34;4954046;29;809;-59
2023/09/29 04:50:30;;;;;;;;;;;;;;;17.24;100.00;99932.25;4954032;29;892;-59
2023/09/29 04:52:57;;;;;;;;;;;;;;;17.35;100.00;99931.94;4954225;29;829;-59
2023/09/29 04:55:24;;;;;;;;;;;;;;;17.41;100.00;99935.75;4953926;29;1063;-59
2023/09/29 04:57:52;;;;;;;;;;;;;;;17.41;100.00;99934.94;4941751;29;1949;-59
2023/09/29 05:00:19;;;;;;;;;;;;;;;17.42;100.00;99945.66;4953761;29;814;-60
2023/09/29 05:02:45;;;;;;;;;;;;;;;17.45;100.00;99946.78;4953958;29;853;-59
2023/09/29 05:05:13;;;;;;;;;;;;;;;17.48;100.00;99937.53;4953729;29;837;-59
2023/09/29 05:07:39;;;;;;;;;;;;;;;17.52;100.00;99941.00;4953868;29;818;-59
2023/09/29 05:10:06;;;;;;;;;;;;;;;17.55;100.00;99940.84;4952428;29;1163;-59
2023/09/29 05:12:32;;;;;;;;;;;;;;;17.64;100.00;99945.00;4953800;29;912;-59
2023/09/29 05:14:59;;;;;;;;;;;;;;;17.71;100.00;99947.59;4953793;29;1420;-60
2023/09/29 05:17:26;;;;;;;;;;;;;;;17.86;100.00;99942.31;4953807;29;827;-59
2023/09/29 05:19:53;;;;;;;;;;;;;;;17.98;100.00;99946.34;4936343;29;1899;-59
2023/09/29 05:22:21;;;;;;;;;;;;;;;18.15;100.00;99936.56;4953956;29;1316;-59
2023/09/29 05:24:47;;;;;;;;;;;;;;;18.28;100.00;99942.13;4953837;29;860;-59
2023/09/29 05:27:14;;;;;;;;;;;;;;;18.41;100.00;99945.66;4953702;29;886;-59
2023/09/29 05:29:41;;;;;;;;;;;;;;;18.54;100.00;99951.22;4953917;29;845;-59
2023/09/29 05:32:07;;;;;;;;;;;;;;;18.81;100.00;99952.72;4952722;29;1223;-59
2023/09/29 05:34:34;;;;;;;;;;;;;;;19.13;100.00;99952.28;4956575;28;860;-59
2023/09/29 05:36:59;;;;;;;;;;;;;;;19.40;100.00;99953.69;4957421;29;1196;-58
2023/09/29 05:39:26;;;;;;;;;;;;;;;19.16;100.00;99947.78;4957192;29;1890;-59
2023/09/29 05:41:53;;;;;;;;;;;;;;;19.07;100.00;99942.91;4957335;29;944;-59
2023/09/29 05:44:18;;;;;;;;;;;;;;;19.03;100.00;99952.69;4957207;29;914;-59
2023/09/29 05:46:45;;;;;;;;;;;;;;;19.07;100.00;99944.94;4957209;29;913;-59
2023/09/29 05:49:11;;;;;;;;;;;;;;;19.10;100.00;99946.84;4939871;29;1286;-58
2023/09/29 05:51:38;;;;;;;;;;;;;;;19.03;100.00;99953.47;4957145;29;825;-59
2023/09/29 05:54:05;;;;;;;;;;;;;;;18.99;100.00;99950.03;4957068;29;843;-59
2023/09/29 05:56:32;;;;;;;;;;;;;;;19.03;100.00;99947.88;4956902;29;884;-59
2023/09/29 05:59:00;;;;;;;;;;;;;;;19.25;100.00;99956.25;4956928;29;1890;-59
2023/09/29 06:01:26;;;;;;;;;;;;;;;19.51;100.00;99953.28;4956880;29;881;-59
2023/09/29 06:03:53;;;;;;;;;;;;;;;19.62;100.00;99962.03;4956888;29;892;-59
2023/09/29 06:06:19;;;;;;;;;;;;;;;19.58;100.00;99956.56;4957060;29;861;-59
2023/09/29 06:08:46;;;;;;;;;;;;;;;19.70;100.00;99960.53;4956836;29;877;-59
2023/09/29 06:11:13;;;;;;;;;;;;;;;19.82;100.00;99955.28;4956606;29;883;-59
2023/09/29 06:13:40;;;;;;;;;;;;;;;19.95;100.00;99951.13;4957031;29;1058;-59
2023/09/29 06:16:07;;;;;;;;;;;;;;;20.28;100.00;99958.19;4956445;29;1316;-59
2023/09/29 06:18:32;;;;;;;;;;;;;;;20.66;100.00;99957.00;4956499;29;1978;-59
2023/09/29 06:21:00;;;;;;;;;;;;;;;20.89;100.00;99966.78;4956553;29;829;-59
2023/09/29 06:23:27;;;;;;;;;;;;;;;20.77;100.00;99966.50;4956645;29;825;-59
2023/09/29 06:25:57;;;;;;;;;;;;;;;20.79;100.00;99963.22;4956535;29;883;-59
2023/09/29 06:28:24;;;;;;;;;;;;;;;20.70;100.00;99964.00;4956475;29;794;-58
2023/09/29 06:30:52;;;;;;;;;;;;;;;20.56;100.00;99958.97;4956408;29;825;-58
2023/09/29 06:33:19;;;;;;;;;;;;;;;20.54;100.00;99958.66;4956325;29;830;-59
2023/09/29 06:35:46;;;;;;;;;;;;;;;20.49;100.00;99956.50;4956230;29;830;-59
2023/09/29 06:38:12;;;;;;;;;;;;;;;20.38;100.00;99956.97;4956193;29;1902;-58
2023/09/29 06:40:38;;;;;;;;;;;;;;;20.39;100.00;99958.50;4956147;29;818;-59
2023/09/29 07:14:49;;;;;;;;;;;;;;;21.78;100.00;99985.16;4920502;29;1490;-58
2023/09/29 07:17:15;;;;;;;;;;;;;;;21.51;100.00;99982.47;4917466;29;976;-58
2023/09/29 07:19:43;;;;;;;;;;;;;;;21.47;100.00;99999.50;4917372;29;1918;-58
2023/09/29 07:22:08;;;;;;;;;;;;;;;21.81;100.00;99997.50;4916031;29;1313;-58
2023/09/29 07:24:35;;;;;;;;;;;;;;;22.31;100.00;100002.75;4917370;29;853;-58
2023/09/29 07:27:02;;;;;;;;;;;;;;;22.51;100.00;100000.09;4917304;29;809;-58
2023/09/29 07:29:28;;;;;;;;;;;;;;;22.89;100.00;100000.56;4917520;29;900;-58
2023/09/29 07:31:55;;;;;;;;;;;;;;;23.75;100.00;100002.38;4917218;29;814;-58
2023/09/29 07:34:27;;;;;;;;;;;;;;;24.15;100.00;100005.78;4916047;29;856;-58
2023/09/29 07:36:53;;;;;;;;;;;;;;;24.28;100.00;100000.56;4917022;29;893;-58
2023/09/29 07:39:20;;;;;;;;;;;;;;;24.12;100.00;100013.19;4916973;29;1969;-58
2023/09/29 07:41:47;;;;;;;;;;;;;;;24.36;100.00;100015.81;4917024;29;825;-58
2023/09/29 07:44:14;;;;;;;;;;;;;;;24.77;97.16;100015.06;4917101;29;955;-58
2023/09/29 07:46:39;;;;;;;;;;;;;;;24.46;97.64;100020.06;4916930;29;888;-59
2023/09/29 07:49:06;;;;;;;;;;;;;;;24.24;98.18;100016.97;4916757;29;955;-58
2023/09/29 07:51:33;;;;;;;;;;;;;;;24.27;98.43;100021.63;4916823;29;950;-58
2023/09/29 07:54:00;;;;;;;;;;;;;;;24.67;97.30;100022.16;4916806;29;872;-59
2023/09/29 07:56:27;;;;;;;;;;;;;;;25.16;94.88;100021.16;4916321;29;849;-59
2023/09/29 07:58:54;;;;;;;;;;;;;;;25.06;94.48;100017.72;4916062;29;1893;-59
2023/09/29 08:01:21;;;;;;;;;;;;;;;25.11;95.84;100015.44;4916689;29;868;-59
2023/09/29 08:03:48;;;;;;;;;;;;;;;25.32;93.13;100019.78;4915410;29;866;-60
2023/09/29 08:06:17;;;;;;;;;;;;;;;24.67;96.45;100028.59;4916425;29;900;-59
2023/09/29 08:08:45;;;;;;;;;;;;;;;24.51;97.40;100012.97;4916823;29;833;-60
2023/09/29 08:11:12;;;;;;;;;;;;;;;24.75;96.91;100006.31;4916231;29;1109;-59
2023/09/29 08:13:39;;;;;;;;;;;;;;;24.56;96.09;100005.81;4916188;29;1304;-60
2023/09/29 08:16:06;;;;;;;;;;;;;;;24.62;97.76;100021.59;4934062;29;862;-59
2023/09/29 08:18:32;;;;;;;;;;;;;;;25.13;95.76;100008.00;4934064;29;1972;-60
2023/09/29 08:20:58;;;;;;;;;;;;;;;25.41;94.71;100008.31;4935224;29;848;-59
2023/09/29 08:23:30;;;;;;;;;;;;;;;25.69;92.55;100004.94;4935243;29;920;-60
2023/09/29 08:25:56;;;;;;;;;;;;;;;25.96;92.06;100003.59;4934999;29;1339;-60
2023/09/29 08:28:22;;;;;;;;;;;;;;;25.82;92.71;100010.19;4935152;29;869;-59
2023/09/29 08:30:49;;;;;;;;;;;;;;;25.67;92.49;100013.94;4935141;29;932;-59
2023/09/29 08:33:16;;;;;;;;;;;;;;;25.66;92.81;100020.09;4935104;29;904;-59
2023/09/29 08:35:44;;;;;;;;;;;;;;;25.57;93.08;100018.22;4935033;29;932;-59
2023/09/29 08:38:10;;;;;;;;;;;;;;;25.39;92.74;100012.91;4934800;29;1890;-59
2023/09/29 08:40:40;;;;;;;;;;;;;;;25.26;94.03;100013.31;4935310;29;1970;-59
2023/09/29 08:43:10;;;;;;;;;;;;;;;25.20;93.94;100003.97;4934757;29;948;-59
2023/09/29 08:45:40;;;;;;;;;;;;;;;25.36;95.35;100013.91;4933639;29;1861;-59
2023/09/29 08:48:11;;;;;;;;;;;;;;;25.36;92.96;100008.25;4934958;29;1307;-60
2023/09/29 08:50:42;;;;;;;;;;;;;;;25.22;92.39;100010.72;4934894;29;845;-60
2023/09/29 08:53:12;;;;;;;;;;;;;;;25.18;92.57;100006.53;4934752;29;877;-60
2023/09/29 08:55:40;;;;;;;;;;;;;;;25.10;91.67;100016.72;4934801;29;829;-60
2023/09/29 08:58:07;;;;;;;;;;;;;;;25.09;92.91;100009.50;4934697;29;1899;-59
2023/09/29 09:00:34;;;;;;;;;;;;;;;25.37;91.70;100007.78;4933435;29;967;-58
2023/09/29 09:03:02;;;;;;;;;;;;;;;25.48;91.54;99998.59;4934713;29;885;-59
2023/09/29 09:05:28;;;;;;;;;;;;;;;25.35;91.88;100015.97;4934629;29;849;-59
2023/09/29 09:08:01;;;;;;;;;;;;;;;25.12;92.39;100012.13;4934511;29;812;-59
2023/09/29 09:10:31;;;;;;;;;;;;;;;25.03;93.79;100018.72;4933278;29;1273;-58
2023/09/29 09:12:59;;;;;;;;;;;;;;;25.05;92.51;100010.53;4931939;29;1366;-59
2023/09/29 09:15:38;;;;;;;;;;;;;;;25.15;93.75;100016.00;4916169;29;1220;-59
2023/09/29 09:18:06;;;;;;;;;;;;;;;25.32;91.86;100016.97;4929846;29;1919;-59
2023/09/29 09:20:33;;;;;;;;;;;;;;;25.22;92.11;100027.69;4915522;29;860;-59
2023/09/29 09:23:04;;;;;;;;;;;;;;;25.31;92.34;100020.31;4915693;29;896;-59
2023/09/29 09:25:41;;;;;;;;;;;;;;;25.75;90.82;100019.88;4915434;29;1158;-59
2023/09/29 09:28:15;;;;;;;;;;;;;;;25.95;89.90;100016.22;4915556;29;849;-59
2023/09/29 09:30:42;;;;;;;;;;;;;;;26.08;89.65;100012.97;4915435;29;885;-59
2023/09/29 09:33:15;;;;;;;;;;;;;;;26.45;88.14;100014.94;4915512;29;809;-59
2023/09/29 09:35:42;;;;;;;;;;;;;;;26.62;87.34;100015.81;4915413;29;834;-59
2023/09/29 09:38:09;;;;;;;;;;;;;;;26.48;77.47;100030.94;4929773;29;1922;-61
2023/09/29 09:40:36;;;;;;;;;;;;;;;25.99;78.69;100019.59;4915376;29;849;-59
2023/09/29 09:43:05;;;;;;;;;;;;;;;25.70;79.10;100031.19;4930140;29;1449;-59
2023/09/29 09:45:43;;;;;;;;;;;;;;;25.36;79.46;100026.00;4915577;29;924;-59
2023/09/29 09:48:09;;;;;;;;;;;;;;;25.29;80.75;100020.81;4915183;29;972;-59
2023/09/29 09:50:36;;;;;;;;;;;;;;;25.72;79.88;100017.31;4915345;29;880;-59
2023/09/29 09:53:07;;;;;;;;;;;;;;;26.08;78.31;100018.63;4915213;29;928;-59
2023/09/29 09:55:39;;;;;;;;;;;;;;;26.04;77.97;100027.34;4915257;29;929;-59
2023/09/29 09:58:11;;;;;;;;;;;;;;;25.84;76.81;100025.38;4915123;29;1992;-59
2023/09/29 10:00:39;;;;;;;;;;;;;;;26.27;75.56;100033.16;4915065;29;948;-59
2023/09/29 10:03:11;;;;;;;;;;;;;;;26.47;74.11;100030.16;4915288;29;817;-59
2023/09/29 10:05:41;;;;;;;;;;;;;;;26.38;74.85;100026.78;4914963;29;948;-59
2023/09/29 10:08:10;;;;;;;;;;;;;;;26.41;75.15;100022.91;4915316;29;903;-59
2023/09/29 10:10:38;;;;;;;;;;;;;;;26.41;73.83;100017.25;4914777;29;956;-59
2023/09/29 10:13:05;;;;;;;;;;;;;;;26.18;73.51;100024.84;4915197;29;1206;-59
2023/09/29 10:15:32;;;;;;;;;;;;;;;25.96;73.70;100014.16;4915383;29;849;-59
2023/09/29 10:18:17;;;;;;;;;;;;;;;25.91;71.04;100021.34;4914875;29;1914;-59
2023/09/29 10:20:46;;;;;;;;;;;;;;;26.40;69.71;100012.88;4916014;29;964;-59
2023/09/29 10:23:16;;;;;;;;;;;;;;;26.88;68.83;99995.03;4918388;29;873;-59
2023/09/29 10:25:49;;;;;;;;;;;;;;;27.27;65.02;99991.53;4918419;29;841;-59
2023/09/29 10:28:18;;;;;;;;;;;;;;;27.62;63.48;99990.22;4918293;29;924;-59
2023/09/29 10:30:45;;;;;;;;;;;;;;;27.88;63.26;99981.44;4918184;29;963;-59
2023/09/29 10:33:12;;;;;;;;;;;;;;;28.43;61.90;99985.41;4918389;29;883;-59
2023/09/29 10:35:46;;;;;;;;;;;;;;;29.07;60.20;99984.59;4918095;29;864;-60
2023/09/29 10:38:25;;;;;;;;;;;;;;;28.62;59.93;99979.16;4918037;29;1890;-60
2023/09/29 10:40:52;;;;;;;;;;;;;;;27.62;61.18;99979.66;4918012;29;833;-59
2023/09/29 10:43:25;;;;;;;;;;;;;;;27.16;62.48;99971.59;4917892;29;969;-59
2023/09/29 10:45:51;;;;;;;;;;;;;;;27.59;61.95;99968.53;4918344;29;825;-59
2023/09/29 10:48:26;;;;;;;;;;;;;;;28.06;60.97;99966.69;4918024;29;822;-59
2023/09/29 10:50:52;;;;;;;;;;;;;;;27.83;61.42;99965.94;4917944;29;936;-59
2023/09/29 10:53:22;;;;;;;;;;;;;;;27.79;60.96;99950.47;4917962;29;972;-60
2023/09/29 10:55:49;;;;;;;;;;;;;;;27.46;61.47;99955.66;4917907;29;842;-59
2023/09/29 10:58:17;;;;;;;;;;;;;;;27.21;62.09;99951.00;4917753;29;1887;-59
2023/09/29 11:00:47;;;;;;;;;;;;;;;27.07;62.79;99956.38;4918119;29;816;-59
2023/09/29 11:03:14;;;;;;;;;;;;;;;27.47;62.29;99943.00;4917788;29;1267;-59
2023/09/29 11:05:50;;;;;;;;;;;;;;;28.34;60.75;99943.09;4935574;29;1180;-59
2023/09/29 11:08:20;;;;;;;;;;;;;;;28.71;59.39;99951.19;4936612;29;813;-59
2023/09/29 11:10:55;;;;;;;;;;;;;;;28.62;59.35;99947.91;4936463;29;947;-59
2023/09/29 11:13:22;;;;;;;;;;;;;;;28.28;60.02;99945.19;4930897;29;1364;-59
2023/09/29 11:15:50;;;;;;;;;;;;;;;28.13;60.74;99939.81;4917817;29;890;-59
2023/09/29 11:18:27;;;;;;;;;;;;;;;28.53;59.76;99931.91;4917609;29;2000;-59
2023/09/29 11:20:53;;;;;;;;;;;;;;;29.07;57.23;99936.22;4917306;29;919;-59
2023/09/29 11:23:19;;;;;;;;;;;;;;;29.49;55.91;99929.16;4917299;29;875;-59
2023/09/29 11:25:46;;;;;;;;;;;;;;;30.02;54.81;99928.91;4917365;29;852;-59
2023/09/29 11:28:13;;;;;;;;;;;;;;;29.49;53.43;99929.16;4917563;29;862;-60
2023/09/29 11:30:39;;;;;;;;;;;;;;;28.64;54.32;99933.94;4917571;29;928;-59
2023/09/29 11:33:10;;;;;;;;;;;;;;;28.37;54.93;99930.66;4916922;29;876;-59
2023/09/29 11:35:36;;;;;;;;;;;;;;;28.45;55.02;99930.91;4917299;29;841;-59
2023/09/29 11:38:05;;;;;;;;;;;;;;;28.84;54.34;99929.91;4916937;29;1890;-59
2023/09/29 11:40:31;;;;;;;;;;;;;;;30.04;52.74;99923.44;4917056;29;956;-59
2023/09/29 11:42:58;;;;;;;;;;;;;;;30.57;51.36;99917.34;4917002;29;849;-59
2023/09/29 11:45:25;;;;;;;;;;;;;;;31.13;49.58;99910.00;4916987;29;908;-60
2023/09/29 11:47:52;;;;;;;;;;;;;;;31.05;48.50;99909.91;4916869;29;925;-60
2023/09/29 11:50:19;;;;;;;;;;;;;;;30.78;47.30;99911.84;4931441;29;833;-59
2023/09/29 11:52:55;;;;;;;;;;;;;;;29.99;48.24;99904.31;4916986;29;908;-60
2023/09/29 11:55:28;;;;;;;;;;;;;;;29.59;48.94;99900.34;4916619;29;1034;-59
2023/09/29 11:57:54;;;;;;;;;;;;;;;29.89;48.59;99897.44;4916792;29;851;-59
2023/09/29 12:00:21;;;;;;;;;;;;;;;29.92;47.30;99897.16;4916499;29;1948;-59
2023/09/29 12:02:47;;;;;;;;;;;;;;;29.97;47.50;99889.84;4916713;29;888;-59
2023/09/29 12:05:14;;;;;;;;;;;;;;;30.40;47.22;99896.84;4916527;29;865;-60
2023/09/29 12:07:40;;;;;;;;;;;;;;;30.38;45.91;99890.91;4916452;29;877;-60
2023/09/29 12:10:08;;;;;;;;;;;;;;;30.08;46.27;99891.78;4916383;29;970;-60
2023/09/29 12:12:34;;;;;;;;;;;;;;;29.86;46.27;99890.75;4916742;29;971;-60
2023/09/29 12:15:01;;;;;;;;;;;;;;;29.56;46.63;99893.63;4916205;29;1312;-60
2023/09/29 12:17:27;;;;;;;;;;;;;;;29.61;46.85;99880.63;4916448;29;838;-60
2023/09/29 12:19:55;;;;;;;;;;;;;;;30.01;46.49;99878.16;4916406;29;1911;-60
2023/09/29 12:22:22;;;;;;;;;;;;;;;29.91;45.99;99877.72;4916281;29;891;-60
2023/09/29 12:24:49;;;;;;;;;;;;;;;29.91;46.46;99880.59;4916501;29;913;-59
2023/09/29 12:27:16;;;;;;;;;;;;;;;30.20;46.16;99881.03;4916108;29;1065;-59
2023/09/29 12:29:42;;;;;;;;;;;;;;;29.96;46.05;99876.91;4916343;29;905;-60
2023/09/29 12:32:09;;;;;;;;;;;;;;;29.68;45.90;99877.97;4916271;29;881;-60
2023/09/29 12:34:37;;;;;;;;;;;;;;;29.31;46.14;99878.59;4916192;29;834;-60
2023/09/29 12:37:04;;;;;;;;;;;;;;;29.16;47.10;99878.22;4915855;29;878;-59
2023/09/29 12:39:39;;;;;;;;;;;;;;;28.98;47.01;99869.03;4915904;29;1965;-60
2023/09/29 12:42:15;;;;;;;;;;;;;;;28.69;47.07;99864.88;4930585;29;1238;-59
2023/09/29 12:44:43;;;;;;;;;;;;;;;28.69;47.04;99862.78;4930146;29;1329;-59
2023/09/29 12:47:10;;;;;;;;;;;;;;;28.98;46.78;99857.66;4915869;29;900;-59
2023/09/29 12:49:37;;;;;;;;;;;;;;;29.15;46.35;99856.75;4930713;29;1168;-59
2023/09/29 12:52:03;;;;;;;;;;;;;;;29.27;45.65;99847.59;4916084;29;856;-61
2023/09/29 12:54:30;;;;;;;;;;;;;;;29.26;45.23;99848.91;4915906;29;813;-59
2023/09/29 12:56:57;;;;;;;;;;;;;;;29.58;45.33;99850.41;4915788;29;864;-59
2023/09/29 12:59:25;;;;;;;;;;;;;;;30.12;44.12;99846.66;4915607;29;1950;-59
2023/09/29 13:01:51;;;;;;;;;;;;;;;30.50;42.47;99855.22;4946429;29;1239;-60
2023/09/29 13:04:18;;;;;;;;;;;;;;;30.29;39.88;99841.50;4915697;29;857;-59
2023/09/29 13:06:45;;;;;;;;;;;;;;;30.12;38.83;99840.94;4915957;29;892;-59
2023/09/29 13:09:12;;;;;;;;;;;;;;;30.17;38.36;99839.31;4930194;29;1226;-59
2023/09/29 13:11:38;;;;;;;;;;;;;;;30.29;37.13;99837.91;4915743;29;917;-59
2023/09/29 13:14:06;;;;;;;;;;;;;;;30.16;36.68;99837.81;4915335;29;1432;-59
2023/09/29 13:16:32;;;;;;;;;;;;;;;30.13;36.72;99833.97;4915571;29;881;-59
2023/09/29 13:18:59;;;;;;;;;;;;;;;30.29;36.27;99832.97;4915435;29;1906;-60
2023/09/29 13:21:27;;;;;;;;;;;;;;;30.32;36.16;99837.59;4915579;29;866;-59
2023/09/29 13:23:53;;;;;;;;;;;;;;;30.48;35.69;99837.88;4915448;29;1176;-60
2023/09/29 13:26:19;;;;;;;;;;;;;;;30.45;35.67;99831.19;4915541;29;971;-59
2023/09/29 13:28:47;;;;;;;;;;;;;;;29.90;35.84;99830.63;4946138;29;960;-59
2023/09/29 13:31:13;;;;;;;;;;;;;;;29.23;36.51;99820.72;4915488;29;1206;-60
2023/09/29 13:33:39;;;;;;;;;;;;;;;29.21;36.36;99820.50;4915403;29;941;-60